sensor_id;sensor_type;location;lat;lon;timestamp;P1;durP1;ratioP1;P2;durP2;ratioP2
47764;SDS011;33529;49.242;8.670;2022-08-14T00:01:44;5.45;;;4.47;;
47764;SDS011;33529;49.242;8.670;2022-08-14T00:04:21;5.07;;;4.15;;
47764;SDS011;33529;49.242;8.670;2022-08-14T00:07:07;5.00;;;3.97;;
47764;SDS011;33529;49.242;8.670;2022-08-14T00:09:35;5.60;;;4.40;;
47764;SDS011;33529;49.242;8.670;2022-08-14T00:12:22;5.15;;;4.53;;
47764;SDS011;33529;49.242;8.670;2022-08-14T00:15:23;5.03;;;4.22;;
47764;SDS011;33529;49.242;8.670;2022-08-14T00:18:10;7.53;;;4.25;;
47764;SDS011;33529;49.242;8.670;2022-08-14T00:20:40;5.28;;;4.35;;
47764;SDS011;33529;49.242;8.670;2022-08-14T00:23:09;7.30;;;4.68;;
47764;SDS011;33529;49.242;8.670;2022-08-14T00:25:46;4.63;;;4.07;;
47764;SDS011;33529;49.242;8.670;2022-08-14T00:28:31;6.57;;;4.35;;
47764;SDS011;33529;49.242;8.670;2022-08-14T00:31:02;5.95;;;4.53;;
47764;SDS011;33529;49.242;8.670;2022-08-14T00:33:30;4.90;;;4.18;;
47764;SDS011;33529;49.242;8.670;2022-08-14T00:36:17;7.35;;;4.72;;
47764;SDS011;33529;49.242;8.670;2022-08-14T00:39:05;5.82;;;4.15;;
47764;SDS011;33529;49.242;8.670;2022-08-14T00:41:34;4.97;;;4.30;;
47764;SDS011;33529;49.242;8.670;2022-08-14T00:44:04;6.03;;;4.45;;
47764;SDS011;33529;49.242;8.670;2022-08-14T00:46:33;4.90;;;4.25;;
47764;SDS011;33529;49.242;8.670;2022-08-14T00:49:02;9.40;;;5.18;;
47764;SDS011;33529;49.242;8.670;2022-08-14T00:51:30;5.88;;;4.60;;
47764;SDS011;33529;49.242;8.670;2022-08-14T00:54:03;5.18;;;4.68;;
47764;SDS011;33529;49.242;8.670;2022-08-14T00:56:47;5.18;;;4.57;;
47764;SDS011;33529;49.242;8.670;2022-08-14T00:59:15;5.72;;;4.78;;
47764;SDS011;33529;49.242;8.670;2022-08-14T01:01:43;6.95;;;4.97;;
47764;SDS011;33529;49.242;8.670;2022-08-14T01:04:11;6.93;;;4.93;;
47764;SDS011;33529;49.242;8.670;2022-08-14T01:06:59;5.18;;;4.57;;
47764;SDS011;33529;49.242;8.670;2022-08-14T01:09:33;8.05;;;4.95;;
47764;SDS011;33529;49.242;8.670;2022-08-14T01:12:02;5.72;;;4.38;;
47764;SDS011;33529;49.242;8.670;2022-08-14T01:14:30;5.22;;;4.72;;
47764;SDS011;33529;49.242;8.670;2022-08-14T01:17:00;5.85;;;4.95;;
47764;SDS011;33529;49.242;8.670;2022-08-14T01:19:29;5.68;;;4.78;;
47764;SDS011;33529;49.242;8.670;2022-08-14T01:22:14;7.10;;;4.93;;
47764;SDS011;33529;49.242;8.670;2022-08-14T01:24:44;5.40;;;4.75;;
47764;SDS011;33529;49.242;8.670;2022-08-14T01:27:16;10.85;;;9.30;;
47764;SDS011;33529;49.242;8.670;2022-08-14T01:29:48;5.38;;;4.68;;
47764;SDS011;33529;49.242;8.670;2022-08-14T01:32:29;6.97;;;5.03;;
47764;SDS011;33529;49.242;8.670;2022-08-14T01:35:02;6.20;;;5.50;;
47764;SDS011;33529;49.242;8.670;2022-08-14T01:37:53;6.10;;;5.03;;
47764;SDS011;33529;49.242;8.670;2022-08-14T01:40:25;7.65;;;5.57;;
47764;SDS011;33529;49.242;8.670;2022-08-14T01:42:58;7.35;;;5.85;;
47764;SDS011;33529;49.242;8.670;2022-08-14T01:45:28;7.90;;;5.32;;
47764;SDS011;33529;49.242;8.670;2022-08-14T01:48:06;5.93;;;5.32;;
47764;SDS011;33529;49.242;8.670;2022-08-14T01:50:39;6.25;;;5.65;;
47764;SDS011;33529;49.242;8.670;2022-08-14T01:53:09;6.40;;;5.63;;
47764;SDS011;33529;49.242;8.670;2022-08-14T01:55:36;7.60;;;4.78;;
47764;SDS011;33529;49.242;8.670;2022-08-14T01:58:05;6.32;;;5.72;;
47764;SDS011;33529;49.242;8.670;2022-08-14T02:00:49;5.85;;;5.28;;
47764;SDS011;33529;49.242;8.670;2022-08-14T02:03:21;7.80;;;5.60;;
47764;SDS011;33529;49.242;8.670;2022-08-14T02:05:58;10.07;;;5.40;;
47764;SDS011;33529;49.242;8.670;2022-08-14T02:08:46;9.82;;;6.03;;
47764;SDS011;33529;49.242;8.670;2022-08-14T02:11:20;7.15;;;6.20;;
47764;SDS011;33529;49.242;8.670;2022-08-14T02:16:43;7.88;;;5.30;;
47764;SDS011;33529;49.242;8.670;2022-08-14T02:19:15;7.63;;;5.90;;
47764;SDS011;33529;49.242;8.670;2022-08-14T02:21:44;6.90;;;5.65;;
47764;SDS011;33529;49.242;8.670;2022-08-14T02:24:16;8.43;;;6.60;;
47764;SDS011;33529;49.242;8.670;2022-08-14T02:27:05;6.13;;;5.47;;
47764;SDS011;33529;49.242;8.670;2022-08-14T02:29:52;7.10;;;5.72;;
47764;SDS011;33529;49.242;8.670;2022-08-14T02:32:27;9.77;;;6.65;;
47764;SDS011;33529;49.242;8.670;2022-08-14T02:35:06;5.88;;;5.28;;
47764;SDS011;33529;49.242;8.670;2022-08-14T02:37:40;6.55;;;5.80;;
47764;SDS011;33529;49.242;8.670;2022-08-14T02:40:13;7.57;;;6.30;;
47764;SDS011;33529;49.242;8.670;2022-08-14T02:42:41;6.95;;;6.10;;
47764;SDS011;33529;49.242;8.670;2022-08-14T02:45:20;6.72;;;5.72;;
47764;SDS011;33529;49.242;8.670;2022-08-14T02:47:48;7.13;;;5.97;;
47764;SDS011;33529;49.242;8.670;2022-08-14T02:50:22;7.40;;;6.03;;
47764;SDS011;33529;49.242;8.670;2022-08-14T02:52:52;6.90;;;6.20;;
47764;SDS011;33529;49.242;8.670;2022-08-14T02:55:27;8.38;;;6.03;;
47764;SDS011;33529;49.242;8.670;2022-08-14T02:57:56;8.63;;;6.65;;
47764;SDS011;33529;49.242;8.670;2022-08-14T03:00:34;7.13;;;6.07;;
47764;SDS011;33529;49.242;8.670;2022-08-14T03:03:05;6.85;;;6.10;;
47764;SDS011;33529;49.242;8.670;2022-08-14T03:05:34;8.50;;;7.10;;
47764;SDS011;33529;49.242;8.670;2022-08-14T03:08:07;7.00;;;6.30;;
47764;SDS011;33529;49.242;8.670;2022-08-14T03:10:41;7.63;;;6.63;;
47764;SDS011;33529;49.242;8.670;2022-08-14T03:13:15;8.23;;;7.03;;
47764;SDS011;33529;49.242;8.670;2022-08-14T03:15:45;9.25;;;7.15;;
47764;SDS011;33529;49.242;8.670;2022-08-14T03:18:16;8.27;;;6.75;;
47764;SDS011;33529;49.242;8.670;2022-08-14T03:20:43;7.45;;;6.68;;
47764;SDS011;33529;49.242;8.670;2022-08-14T03:23:11;7.82;;;7.05;;
47764;SDS011;33529;49.242;8.670;2022-08-14T03:25:41;7.10;;;6.40;;
47764;SDS011;33529;49.242;8.670;2022-08-14T03:28:10;7.32;;;6.63;;
47764;SDS011;33529;49.242;8.670;2022-08-14T03:30:57;8.35;;;7.20;;
47764;SDS011;33529;49.242;8.670;2022-08-14T03:33:25;7.03;;;6.38;;
47764;SDS011;33529;49.242;8.670;2022-08-14T03:36:09;8.00;;;6.50;;
47764;SDS011;33529;49.242;8.670;2022-08-14T03:38:59;7.32;;;6.63;;
47764;SDS011;33529;49.242;8.670;2022-08-14T03:41:46;9.43;;;7.38;;
47764;SDS011;33529;49.242;8.670;2022-08-14T03:44:16;9.55;;;7.05;;
47764;SDS011;33529;49.242;8.670;2022-08-14T03:47:03;7.57;;;6.88;;
47764;SDS011;33529;49.242;8.670;2022-08-14T03:49:30;8.20;;;7.38;;
47764;SDS011;33529;49.242;8.670;2022-08-14T03:51:59;8.18;;;6.75;;
47764;SDS011;33529;49.242;8.670;2022-08-14T03:54:50;8.45;;;7.60;;
47764;SDS011;33529;49.242;8.670;2022-08-14T03:57:18;9.38;;;7.72;;
47764;SDS011;33529;49.242;8.670;2022-08-14T03:59:48;8.05;;;7.25;;
47764;SDS011;33529;49.242;8.670;2022-08-14T04:02:15;9.07;;;8.02;;
47764;SDS011;33529;49.242;8.670;2022-08-14T04:05:01;8.15;;;7.35;;
47764;SDS011;33529;49.242;8.670;2022-08-14T04:07:37;8.43;;;7.25;;
47764;SDS011;33529;49.242;8.670;2022-08-14T04:10:15;8.35;;;7.40;;
47764;SDS011;33529;49.242;8.670;2022-08-14T04:15:29;8.02;;;7.22;;
47764;SDS011;33529;49.242;8.670;2022-08-14T04:18:16;8.75;;;7.85;;
47764;SDS011;33529;49.242;8.670;2022-08-14T04:20:44;9.27;;;8.23;;
47764;SDS011;33529;49.242;8.670;2022-08-14T04:23:21;8.60;;;7.55;;
47764;SDS011;33529;49.242;8.670;2022-08-14T04:25:59;8.32;;;7.53;;
47764;SDS011;33529;49.242;8.670;2022-08-14T04:28:40;9.20;;;8.32;;
47764;SDS011;33529;49.242;8.670;2022-08-14T04:31:27;8.65;;;7.75;;
47764;SDS011;33529;49.242;8.670;2022-08-14T04:34:14;9.57;;;8.57;;
47764;SDS011;33529;49.242;8.670;2022-08-14T04:36:52;9.68;;;7.95;;
47764;SDS011;33529;49.242;8.670;2022-08-14T04:39:38;9.10;;;8.20;;
47764;SDS011;33529;49.242;8.670;2022-08-14T04:42:25;9.60;;;7.93;;
47764;SDS011;33529;49.242;8.670;2022-08-14T04:45:17;8.45;;;7.65;;
47764;SDS011;33529;49.242;8.670;2022-08-14T04:47:45;9.55;;;8.32;;
47764;SDS011;33529;49.242;8.670;2022-08-14T04:50:35;9.75;;;8.05;;
47764;SDS011;33529;49.242;8.670;2022-08-14T04:53:11;8.63;;;7.82;;
47764;SDS011;33529;49.242;8.670;2022-08-14T04:55:41;9.45;;;8.55;;
47764;SDS011;33529;49.242;8.670;2022-08-14T04:58:11;8.20;;;7.40;;
47764;SDS011;33529;49.242;8.670;2022-08-14T05:00:57;8.88;;;7.15;;
47764;SDS011;33529;49.242;8.670;2022-08-14T05:03:26;8.98;;;7.97;;
47764;SDS011;33529;49.242;8.670;2022-08-14T05:05:57;8.95;;;8.07;;
47764;SDS011;33529;49.242;8.670;2022-08-14T05:08:26;8.80;;;7.90;;
47764;SDS011;33529;49.242;8.670;2022-08-14T05:11:14;9.45;;;8.23;;
47764;SDS011;33529;49.242;8.670;2022-08-14T05:13:40;9.60;;;8.68;;
47764;SDS011;33529;49.242;8.670;2022-08-14T05:16:29;9.55;;;8.57;;
47764;SDS011;33529;49.242;8.670;2022-08-14T05:18:56;8.48;;;7.68;;
47764;SDS011;33529;49.242;8.670;2022-08-14T05:21:43;8.93;;;8.02;;
47764;SDS011;33529;49.242;8.670;2022-08-14T05:24:30;9.45;;;8.45;;
47764;SDS011;33529;49.242;8.670;2022-08-14T05:26:57;9.13;;;8.23;;
47764;SDS011;33529;49.242;8.670;2022-08-14T05:29:24;9.07;;;8.18;;
47764;SDS011;33529;49.242;8.670;2022-08-14T05:31:52;9.80;;;8.73;;
47764;SDS011;33529;49.242;8.670;2022-08-14T05:34:23;11.25;;;8.60;;
47764;SDS011;33529;49.242;8.670;2022-08-14T05:36:57;9.05;;;8.13;;
47764;SDS011;33529;49.242;8.670;2022-08-14T05:39:28;9.32;;;8.02;;
47764;SDS011;33529;49.242;8.670;2022-08-14T05:41:57;9.25;;;8.35;;
47764;SDS011;33529;49.242;8.670;2022-08-14T05:44:26;8.52;;;7.50;;
47764;SDS011;33529;49.242;8.670;2022-08-14T05:46:56;9.15;;;8.35;;
47764;SDS011;33529;49.242;8.670;2022-08-14T05:49:24;8.32;;;7.53;;
47764;SDS011;33529;49.242;8.670;2022-08-14T05:51:59;8.88;;;8.07;;
47764;SDS011;33529;49.242;8.670;2022-08-14T05:54:28;9.15;;;8.23;;
47764;SDS011;33529;49.242;8.670;2022-08-14T05:57:02;9.10;;;8.18;;
47764;SDS011;33529;49.242;8.670;2022-08-14T05:59:30;8.88;;;7.82;;
47764;SDS011;33529;49.242;8.670;2022-08-14T06:02:05;10.00;;;8.60;;
47764;SDS011;33529;49.242;8.670;2022-08-14T06:07:03;9.05;;;8.15;;
47764;SDS011;33529;49.242;8.670;2022-08-14T06:09:31;10.32;;;9.30;;
47764;SDS011;33529;49.242;8.670;2022-08-14T06:12:06;9.27;;;8.38;;
47764;SDS011;33529;49.242;8.670;2022-08-14T06:14:37;8.77;;;7.88;;
47764;SDS011;33529;49.242;8.670;2022-08-14T06:17:05;9.55;;;8.55;;
47764;SDS011;33529;49.242;8.670;2022-08-14T06:19:32;9.68;;;8.68;;
47764;SDS011;33529;49.242;8.670;2022-08-14T06:21:59;10.82;;;9.48;;
47764;SDS011;33529;49.242;8.670;2022-08-14T06:24:27;8.50;;;7.70;;
47764;SDS011;33529;49.242;8.670;2022-08-14T06:27:00;9.80;;;8.80;;
47764;SDS011;33529;49.242;8.670;2022-08-14T06:29:32;9.18;;;8.23;;
47764;SDS011;33529;49.242;8.670;2022-08-14T06:32:00;9.00;;;8.20;;
47764;SDS011;33529;49.242;8.670;2022-08-14T06:34:48;9.40;;;8.50;;
47764;SDS011;33529;49.242;8.670;2022-08-14T06:37:38;9.55;;;7.57;;
47764;SDS011;33529;49.242;8.670;2022-08-14T06:40:06;8.80;;;7.95;;
47764;SDS011;33529;49.242;8.670;2022-08-14T06:42:52;9.95;;;7.75;;
47764;SDS011;33529;49.242;8.670;2022-08-14T06:45:28;8.60;;;7.68;;
47764;SDS011;33529;49.242;8.670;2022-08-14T06:47:59;9.45;;;8.50;;
47764;SDS011;33529;49.242;8.670;2022-08-14T06:50:27;9.43;;;8.52;;
47764;SDS011;33529;49.242;8.670;2022-08-14T06:52:56;8.35;;;7.55;;
47764;SDS011;33529;49.242;8.670;2022-08-14T06:55:24;9.20;;;8.05;;
47764;SDS011;33529;49.242;8.670;2022-08-14T06:57:54;8.83;;;8.03;;
47764;SDS011;33529;49.242;8.670;2022-08-14T07:00:24;9.98;;;9.00;;
47764;SDS011;33529;49.242;8.670;2022-08-14T07:02:56;8.60;;;7.80;;
47764;SDS011;33529;49.242;8.670;2022-08-14T07:05:41;8.30;;;7.28;;
47764;SDS011;33529;49.242;8.670;2022-08-14T07:08:24;9.30;;;7.28;;
47764;SDS011;33529;49.242;8.670;2022-08-14T07:10:58;7.78;;;7.00;;
47764;SDS011;33529;49.242;8.670;2022-08-14T07:13:26;8.88;;;7.97;;
47764;SDS011;33529;49.242;8.670;2022-08-14T07:15:56;9.30;;;7.57;;
47764;SDS011;33529;49.242;8.670;2022-08-14T07:18:26;7.18;;;6.47;;
47764;SDS011;33529;49.242;8.670;2022-08-14T07:20:55;8.85;;;7.30;;
47764;SDS011;33529;49.242;8.670;2022-08-14T07:23:24;7.82;;;7.13;;
47764;SDS011;33529;49.242;8.670;2022-08-14T07:25:53;7.43;;;6.72;;
47764;SDS011;33529;49.242;8.670;2022-08-14T07:28:24;7.70;;;6.88;;
47764;SDS011;33529;49.242;8.670;2022-08-14T07:30:54;8.85;;;7.47;;
47764;SDS011;33529;49.242;8.670;2022-08-14T07:33:41;8.02;;;7.07;;
47764;SDS011;33529;49.242;8.670;2022-08-14T07:36:16;7.80;;;6.95;;
47764;SDS011;33529;49.242;8.670;2022-08-14T07:38:56;7.63;;;6.88;;
47764;SDS011;33529;49.242;8.670;2022-08-14T07:41:24;8.25;;;6.53;;
47764;SDS011;33529;49.242;8.670;2022-08-14T07:44:01;7.57;;;6.78;;
47764;SDS011;33529;49.242;8.670;2022-08-14T07:46:48;8.68;;;6.50;;
47764;SDS011;33529;49.242;8.670;2022-08-14T07:49:15;6.90;;;6.22;;
47764;SDS011;33529;49.242;8.670;2022-08-14T07:51:43;7.82;;;7.07;;
47764;SDS011;33529;49.242;8.670;2022-08-14T07:54:16;7.38;;;6.60;;
47764;SDS011;33529;49.242;8.670;2022-08-14T07:56:54;7.43;;;6.15;;
47764;SDS011;33529;49.242;8.670;2022-08-14T07:59:22;8.25;;;6.90;;
47764;SDS011;33529;49.242;8.670;2022-08-14T08:02:08;8.32;;;7.53;;
47764;SDS011;33529;49.242;8.670;2022-08-14T08:04:45;6.72;;;6.03;;
47764;SDS011;33529;49.242;8.670;2022-08-14T08:07:14;6.30;;;5.70;;
47764;SDS011;33529;49.242;8.670;2022-08-14T08:09:42;7.18;;;6.45;;
47764;SDS011;33529;49.242;8.670;2022-08-14T08:12:18;6.57;;;5.95;;
47764;SDS011;33529;49.242;8.670;2022-08-14T08:14:51;7.25;;;6.50;;
47764;SDS011;33529;49.242;8.670;2022-08-14T08:17:28;7.25;;;5.95;;
47764;SDS011;33529;49.242;8.670;2022-08-14T08:20:03;6.55;;;5.95;;
47764;SDS011;33529;49.242;8.670;2022-08-14T08:22:34;7.22;;;6.45;;
47764;SDS011;33529;49.242;8.670;2022-08-14T08:25:03;7.05;;;5.93;;
47764;SDS011;33529;49.242;8.670;2022-08-14T08:27:39;6.88;;;6.07;;
47764;SDS011;33529;49.242;8.670;2022-08-14T08:30:10;6.38;;;5.68;;
47764;SDS011;33529;49.242;8.670;2022-08-14T08:32:38;5.45;;;4.95;;
47764;SDS011;33529;49.242;8.670;2022-08-14T08:35:19;5.97;;;5.38;;
47764;SDS011;33529;49.242;8.670;2022-08-14T08:38:12;5.55;;;5.03;;
47764;SDS011;33529;49.242;8.670;2022-08-14T08:41:02;6.72;;;5.35;;
47764;SDS011;33529;49.242;8.670;2022-08-14T08:43:35;5.72;;;4.68;;
47764;SDS011;33529;49.242;8.670;2022-08-14T08:46:11;5.65;;;4.40;;
47764;SDS011;33529;49.242;8.670;2022-08-14T08:48:55;6.35;;;4.60;;
47764;SDS011;33529;49.242;8.670;2022-08-14T08:51:22;6.68;;;4.78;;
47764;SDS011;33529;49.242;8.670;2022-08-14T09:01:58;6.32;;;3.97;;
47764;SDS011;33529;49.242;8.670;2022-08-14T09:04:34;4.97;;;4.47;;
47764;SDS011;33529;49.242;8.670;2022-08-14T09:07:24;4.78;;;3.92;;
47764;SDS011;33529;49.242;8.670;2022-08-14T09:09:52;7.70;;;3.92;;
47764;SDS011;33529;49.242;8.670;2022-08-14T09:12:25;6.03;;;4.45;;
47764;SDS011;33529;49.242;8.670;2022-08-14T09:14:57;5.65;;;3.85;;
47764;SDS011;33529;49.242;8.670;2022-08-14T09:17:25;5.10;;;3.63;;
47764;SDS011;33529;49.242;8.670;2022-08-14T09:19:52;4.40;;;3.47;;
47764;SDS011;33529;49.242;8.670;2022-08-14T09:22:20;8.18;;;3.92;;
47764;SDS011;33529;49.242;8.670;2022-08-14T09:25:07;5.90;;;3.53;;
47764;SDS011;33529;49.242;8.670;2022-08-14T09:27:36;4.32;;;2.85;;
47764;SDS011;33529;49.242;8.670;2022-08-14T09:30:05;4.90;;;3.67;;
47764;SDS011;33529;49.242;8.670;2022-08-14T09:41:49;4.10;;;2.88;;
47764;SDS011;33529;49.242;8.670;2022-08-14T09:45:09;4.28;;;3.30;;
47764;SDS011;33529;49.242;8.670;2022-08-14T09:47:46;3.95;;;3.10;;
47764;SDS011;33529;49.242;8.670;2022-08-14T09:50:28;3.88;;;3.10;;
47764;SDS011;33529;49.242;8.670;2022-08-14T09:53:09;4.20;;;3.00;;
47764;SDS011;33529;49.242;8.670;2022-08-14T09:55:44;3.65;;;3.00;;
47764;SDS011;33529;49.242;8.670;2022-08-14T09:58:33;3.88;;;3.05;;
47764;SDS011;33529;49.242;8.670;2022-08-14T10:01:07;3.40;;;3.00;;
47764;SDS011;33529;49.242;8.670;2022-08-14T10:03:35;4.50;;;2.75;;
47764;SDS011;33529;49.242;8.670;2022-08-14T10:06:16;5.80;;;2.90;;
47764;SDS011;33529;49.242;8.670;2022-08-14T10:11:23;3.40;;;2.50;;
47764;SDS011;33529;49.242;8.670;2022-08-14T10:14:10;3.67;;;2.25;;
47764;SDS011;33529;49.242;8.670;2022-08-14T10:17:00;2.95;;;2.63;;
47764;SDS011;33529;49.242;8.670;2022-08-14T10:19:30;3.80;;;2.90;;
47764;SDS011;33529;49.242;8.670;2022-08-14T10:22:04;3.50;;;2.70;;
47764;SDS011;33529;49.242;8.670;2022-08-14T10:24:53;3.35;;;2.72;;
47764;SDS011;33529;49.242;8.670;2022-08-14T10:27:21;3.75;;;2.45;;
47764;SDS011;33529;49.242;8.670;2022-08-14T10:29:50;3.47;;;2.65;;
47764;SDS011;33529;49.242;8.670;2022-08-14T10:32:20;3.65;;;3.08;;
47764;SDS011;33529;49.242;8.670;2022-08-14T10:35:05;4.50;;;3.30;;
47764;SDS011;33529;49.242;8.670;2022-08-14T10:37:47;3.53;;;3.00;;
47764;SDS011;33529;49.242;8.670;2022-08-14T10:40:25;4.35;;;3.20;;
47764;SDS011;33529;49.242;8.670;2022-08-14T10:43:14;4.68;;;2.63;;
47764;SDS011;33529;49.242;8.670;2022-08-14T10:46:37;3.55;;;3.05;;
47764;SDS011;33529;49.242;8.670;2022-08-14T10:49:00;4.53;;;2.90;;
47764;SDS011;33529;49.242;8.670;2022-08-14T10:51:29;4.75;;;3.17;;
47764;SDS011;33529;49.242;8.670;2022-08-14T10:54:05;5.38;;;3.08;;
47764;SDS011;33529;49.242;8.670;2022-08-14T10:56:54;3.60;;;2.85;;
47764;SDS011;33529;49.242;8.670;2022-08-14T10:59:21;4.68;;;3.00;;
47764;SDS011;33529;49.242;8.670;2022-08-14T11:02:03;4.50;;;2.72;;
47764;SDS011;33529;49.242;8.670;2022-08-14T11:07:34;3.72;;;2.90;;
47764;SDS011;33529;49.242;8.670;2022-08-14T11:10:08;4.47;;;3.10;;
47764;SDS011;33529;49.242;8.670;2022-08-14T11:12:38;5.53;;;3.40;;
47764;SDS011;33529;49.242;8.670;2022-08-14T11:15:12;3.97;;;3.00;;
47764;SDS011;33529;49.242;8.670;2022-08-14T11:17:48;5.03;;;3.17;;
47764;SDS011;33529;49.242;8.670;2022-08-14T11:20:17;5.85;;;3.10;;
47764;SDS011;33529;49.242;8.670;2022-08-14T11:22:50;4.03;;;2.90;;
47764;SDS011;33529;49.242;8.670;2022-08-14T11:25:25;4.05;;;3.20;;
47764;SDS011;33529;49.242;8.670;2022-08-14T11:28:09;3.58;;;3.08;;
47764;SDS011;33529;49.242;8.670;2022-08-14T11:30:44;3.65;;;2.92;;
47764;SDS011;33529;49.242;8.670;2022-08-14T11:33:23;4.40;;;2.97;;
47764;SDS011;33529;49.242;8.670;2022-08-14T11:36:00;4.13;;;2.90;;
47764;SDS011;33529;49.242;8.670;2022-08-14T11:38:44;4.05;;;3.03;;
47764;SDS011;33529;49.242;8.670;2022-08-14T11:41:12;5.75;;;3.28;;
47764;SDS011;33529;49.242;8.670;2022-08-14T11:49:02;5.32;;;3.20;;
47764;SDS011;33529;49.242;8.670;2022-08-14T11:51:31;4.75;;;3.58;;
47764;SDS011;33529;49.242;8.670;2022-08-14T11:54:17;4.85;;;3.22;;
47764;SDS011;33529;49.242;8.670;2022-08-14T11:56:45;4.13;;;3.38;;
47764;SDS011;33529;49.242;8.670;2022-08-14T11:59:17;5.00;;;3.08;;
47764;SDS011;33529;49.242;8.670;2022-08-14T12:02:11;5.18;;;3.10;;
47764;SDS011;33529;49.242;8.670;2022-08-14T12:05:00;3.17;;;2.65;;
47764;SDS011;33529;49.242;8.670;2022-08-14T12:07:34;4.05;;;3.05;;
47764;SDS011;33529;49.242;8.670;2022-08-14T12:10:08;5.75;;;3.03;;
47764;SDS011;33529;49.242;8.670;2022-08-14T12:12:55;4.25;;;2.70;;
47764;SDS011;33529;49.242;8.670;2022-08-14T12:15:30;4.30;;;3.47;;
47764;SDS011;33529;49.242;8.670;2022-08-14T12:18:01;5.78;;;3.00;;
47764;SDS011;33529;49.242;8.670;2022-08-14T12:20:30;3.65;;;2.88;;
47764;SDS011;33529;49.242;8.670;2022-08-14T12:23:00;4.97;;;3.30;;
47764;SDS011;33529;49.242;8.670;2022-08-14T12:25:31;3.88;;;3.25;;
47764;SDS011;33529;49.242;8.670;2022-08-14T12:28:01;3.80;;;2.92;;
47764;SDS011;33529;49.242;8.670;2022-08-14T12:30:52;3.58;;;2.83;;
47764;SDS011;33529;49.242;8.670;2022-08-14T12:33:26;4.32;;;2.53;;
47764;SDS011;33529;49.242;8.670;2022-08-14T12:36:03;3.78;;;3.22;;
47764;SDS011;33529;49.242;8.670;2022-08-14T12:38:34;5.63;;;2.97;;
47764;SDS011;33529;49.242;8.670;2022-08-14T12:41:12;4.28;;;2.85;;
47764;SDS011;33529;49.242;8.670;2022-08-14T12:43:48;3.60;;;3.10;;
47764;SDS011;33529;49.242;8.670;2022-08-14T12:46:28;5.28;;;2.90;;
47764;SDS011;33529;49.242;8.670;2022-08-14T12:48:57;4.13;;;2.72;;
47764;SDS011;33529;49.242;8.670;2022-08-14T12:51:27;3.97;;;3.20;;
47764;SDS011;33529;49.242;8.670;2022-08-14T12:53:56;3.20;;;2.90;;
47764;SDS011;33529;49.242;8.670;2022-08-14T12:56:27;5.20;;;3.10;;
47764;SDS011;33529;49.242;8.670;2022-08-14T12:59:00;4.38;;;2.90;;
47764;SDS011;33529;49.242;8.670;2022-08-14T13:01:28;4.93;;;3.38;;
47764;SDS011;33529;49.242;8.670;2022-08-14T13:04:17;4.65;;;2.95;;
47764;SDS011;33529;49.242;8.670;2022-08-14T13:06:48;4.28;;;3.40;;
47764;SDS011;33529;49.242;8.670;2022-08-14T13:09:16;3.92;;;3.35;;
47764;SDS011;33529;49.242;8.670;2022-08-14T13:11:46;4.55;;;3.03;;
47764;SDS011;33529;49.242;8.670;2022-08-14T13:14:36;4.25;;;3.05;;
47764;SDS011;33529;49.242;8.670;2022-08-14T13:17:04;3.80;;;2.92;;
47764;SDS011;33529;49.242;8.670;2022-08-14T13:19:32;4.22;;;3.10;;
47764;SDS011;33529;49.242;8.670;2022-08-14T13:22:00;5.30;;;2.78;;
47764;SDS011;33529;49.242;8.670;2022-08-14T13:24:37;4.10;;;3.00;;
47764;SDS011;33529;49.242;8.670;2022-08-14T13:27:05;5.72;;;2.83;;
47764;SDS011;33529;49.242;8.670;2022-08-14T13:29:38;3.47;;;2.40;;
47764;SDS011;33529;49.242;8.670;2022-08-14T13:32:12;4.95;;;3.00;;
47764;SDS011;33529;49.242;8.670;2022-08-14T13:34:40;3.13;;;2.35;;
47764;SDS011;33529;49.242;8.670;2022-08-14T13:37:10;4.45;;;3.03;;
47764;SDS011;33529;49.242;8.670;2022-08-14T13:39:39;3.83;;;2.72;;
47764;SDS011;33529;49.242;8.670;2022-08-14T13:42:23;3.47;;;2.67;;
47764;SDS011;33529;49.242;8.670;2022-08-14T13:44:57;5.35;;;3.28;;
47764;SDS011;33529;49.242;8.670;2022-08-14T13:47:27;3.97;;;2.67;;
47764;SDS011;33529;49.242;8.670;2022-08-14T13:49:57;4.82;;;2.35;;
47764;SDS011;33529;49.242;8.670;2022-08-14T13:52:35;4.60;;;2.58;;
47764;SDS011;33529;49.242;8.670;2022-08-14T13:55:21;3.83;;;2.90;;
47764;SDS011;33529;49.242;8.670;2022-08-14T13:57:50;3.88;;;2.78;;
47764;SDS011;33529;49.242;8.670;2022-08-14T14:00:30;3.65;;;3.00;;
47764;SDS011;33529;49.242;8.670;2022-08-14T14:03:21;3.47;;;2.58;;
47764;SDS011;33529;49.242;8.670;2022-08-14T14:05:52;7.93;;;2.90;;
47764;SDS011;33529;49.242;8.670;2022-08-14T14:08:21;4.32;;;3.05;;
47764;SDS011;33529;49.242;8.670;2022-08-14T14:11:09;5.05;;;2.55;;
47764;SDS011;33529;49.242;8.670;2022-08-14T14:13:41;3.20;;;2.42;;
47764;SDS011;33529;49.242;8.670;2022-08-14T14:16:13;4.32;;;2.90;;
47764;SDS011;33529;49.242;8.670;2022-08-14T14:18:55;5.05;;;2.67;;
47764;SDS011;33529;49.242;8.670;2022-08-14T14:21:34;4.03;;;3.03;;
47764;SDS011;33529;49.242;8.670;2022-08-14T14:24:02;4.00;;;2.80;;
47764;SDS011;33529;49.242;8.670;2022-08-14T14:26:30;3.38;;;2.78;;
47764;SDS011;33529;49.242;8.670;2022-08-14T14:29:01;3.70;;;2.60;;
47764;SDS011;33529;49.242;8.670;2022-08-14T14:31:33;4.53;;;2.88;;
47764;SDS011;33529;49.242;8.670;2022-08-14T14:34:04;3.55;;;2.83;;
47764;SDS011;33529;49.242;8.670;2022-08-14T14:36:45;4.32;;;2.83;;
47764;SDS011;33529;49.242;8.670;2022-08-14T14:39:19;3.38;;;2.75;;
47764;SDS011;33529;49.242;8.670;2022-08-14T14:41:53;5.50;;;2.58;;
47764;SDS011;33529;49.242;8.670;2022-08-14T14:44:22;5.50;;;2.90;;
47764;SDS011;33529;49.242;8.670;2022-08-14T14:46:59;3.92;;;2.58;;
47764;SDS011;33529;49.242;8.670;2022-08-14T14:49:26;4.18;;;2.90;;
47764;SDS011;33529;49.242;8.670;2022-08-14T14:52:14;5.18;;;2.55;;
47764;SDS011;33529;49.242;8.670;2022-08-14T14:54:54;3.05;;;2.55;;
47764;SDS011;33529;49.242;8.670;2022-08-14T14:57:21;4.07;;;2.85;;
47764;SDS011;33529;49.242;8.670;2022-08-14T15:00:00;3.30;;;2.58;;
47764;SDS011;33529;49.242;8.670;2022-08-14T15:05:02;4.63;;;2.50;;
47764;SDS011;33529;49.242;8.670;2022-08-14T15:07:30;4.25;;;2.60;;
47764;SDS011;33529;49.242;8.670;2022-08-14T15:09:58;3.83;;;2.60;;
47764;SDS011;33529;49.242;8.670;2022-08-14T15:12:25;3.53;;;2.60;;
47764;SDS011;33529;49.242;8.670;2022-08-14T15:15:14;5.03;;;2.50;;
47764;SDS011;33529;49.242;8.670;2022-08-14T15:17:41;4.00;;;2.60;;
47764;SDS011;33529;49.242;8.670;2022-08-14T15:20:09;3.10;;;2.20;;
47764;SDS011;33529;49.242;8.670;2022-08-14T15:22:55;3.92;;;2.35;;
47764;SDS011;33529;49.242;8.670;2022-08-14T15:25:22;3.33;;;2.15;;
47764;SDS011;33529;49.242;8.670;2022-08-14T15:27:49;4.22;;;2.40;;
47764;SDS011;33529;49.242;8.670;2022-08-14T15:30:20;5.15;;;2.55;;
47764;SDS011;33529;49.242;8.670;2022-08-14T15:32:57;3.78;;;2.60;;
47764;SDS011;33529;49.242;8.670;2022-08-14T15:35:25;8.15;;;2.67;;
47764;SDS011;33529;49.242;8.670;2022-08-14T15:37:54;3.08;;;2.22;;
47764;SDS011;33529;49.242;8.670;2022-08-14T15:40:21;3.72;;;2.03;;
47764;SDS011;33529;49.242;8.670;2022-08-14T15:42:49;3.67;;;2.15;;
47764;SDS011;33529;49.242;8.670;2022-08-14T15:45:17;2.47;;;1.88;;
47764;SDS011;33529;49.242;8.670;2022-08-14T15:47:44;3.00;;;2.10;;
47764;SDS011;33529;49.242;8.670;2022-08-14T15:50:11;3.22;;;2.20;;
47764;SDS011;33529;49.242;8.670;2022-08-14T15:52:38;3.00;;;1.90;;
47764;SDS011;33529;49.242;8.670;2022-08-14T15:55:09;3.03;;;2.20;;
47764;SDS011;33529;49.242;8.670;2022-08-14T15:57:40;2.95;;;2.22;;
47764;SDS011;33529;49.242;8.670;2022-08-14T16:00:28;3.28;;;2.42;;
47764;SDS011;33529;49.242;8.670;2022-08-14T16:03:15;2.80;;;1.98;;
47764;SDS011;33529;49.242;8.670;2022-08-14T16:06:05;3.03;;;2.30;;
47764;SDS011;33529;49.242;8.670;2022-08-14T16:08:41;4.95;;;2.30;;
47764;SDS011;33529;49.242;8.670;2022-08-14T16:11:10;3.45;;;2.58;;
47764;SDS011;33529;49.242;8.670;2022-08-14T16:13:38;4.95;;;2.47;;